Zigoto — PD3114 — position and weather

sailwx.info

Track history (hours):
 
Tides and Currents Weather Stations Pressure Air Temp Water Temp Dewpoint Dewpoint Depression Visibility Wind Speed Wind Dir Waves Ship Positions

Zigoto

Last reported at 2017-Sep-01 12:41 UTC. Time now 2017-Sep-25 08:24 UTC.
Position N 47°29' W 003°02'.
Warning: this ship's position is 23 days out of date.

Length 12 m.

Type: Sailing vessel. MMSI: 244070876.

Date/timePositionNaut miles runAvg speedWind from/ knotsBaromVisibWave heightAir tempDewpointWater temp
2017-Sep-01 12:41N 47°29' W 003°02'1 6.6
2017-Sep-01 12:30N 47°30' W 003°01'3 6.4
2017-Sep-01 12:00N 47°33' W 003°00'4 0.2
2017-Aug-31 15:08N 47°34' W 002°55'2 5.4
2017-Aug-31 14:51N 47°34' W 002°53'0 1.2
2017-Aug-31 14:29N 47°35' W 002°53'0 0.0
2017-Aug-31 13:59N 47°35' W 002°53'0 0.0
2017-Aug-31 13:27N 47°35' W 002°53'1 3.2
2017-Aug-31 13:00N 47°36' W 002°52'1 3.0
2017-Aug-31 12:30N 47°37' W 002°50'2 3.6
2017-Aug-31 12:00N 47°37' W 002°47'1 2.6
2017-Aug-31 11:30N 47°38' W 002°46'1 1.9
2017-Aug-31 11:00N 47°39' W 002°45'0 0.0
2017-Aug-31 10:30N 47°39' W 002°45'0 0.0
2017-Aug-31 10:00N 47°39' W 002°45'0 0.0
2017-Aug-31 09:30N 47°39' W 002°45'0 0.0
2017-Aug-31 09:00N 47°39' W 002°45'0 0.0
2017-Aug-31 08:30N 47°39' W 002°45'0 0.0
2017-Aug-31 08:00N 47°39' W 002°45'0 0.0
2017-Aug-31 07:30N 47°39' W 002°45'0 0.0
2017-Aug-30 19:58N 47°39' W 002°45'0 0.0
2017-Aug-30 19:28N 47°39' W 002°45'0 0.0
2017-Aug-30 18:58N 47°39' W 002°45'0 0.0
2017-Aug-30 18:28N 47°39' W 002°45'0 0.0
2017-Aug-30 17:58N 47°39' W 002°45'0 0.0
2017-Aug-30 17:28N 47°39' W 002°45'0 0.0
2017-Aug-30 16:58N 47°39' W 002°45'0 0.0
2017-Aug-30 16:28N 47°39' W 002°45'0 0.0
2017-Aug-30 15:58N 47°39' W 002°45'0 0.0
2017-Aug-30 15:28N 47°39' W 002°45'0 0.0
2017-Aug-30 14:58N 47°39' W 002°45'0 0.0
2017-Aug-30 14:28N 47°39' W 002°45'0 0.0
2017-Aug-30 11:46N 47°39' W 002°45'0 0.0
2017-Aug-30 11:28N 47°39' W 002°45'0 0.0
2017-Aug-30 11:00N 47°39' W 002°45'2 3.1
2017-Aug-30 10:30N 47°38' W 002°46'2 3.4
2017-Aug-30 09:59N 47°37' W 002°49'2 3.7
2017-Aug-30 09:30N 47°36' W 002°51'0 0.0
2017-Aug-29 17:49N 47°36' W 002°51'1 1.5
2017-Aug-29 17:29N 47°36' W 002°52'9 0.4
2017-Aug-28 18:50N 47°27' W 002°58'2 3.0
2017-Aug-28 18:07N 47°29' W 002°58'2 2.9
2017-Aug-28 17:30N 47°31' W 002°59'  
2017-Aug-23 08:52N 47°36' W 002°57'1 2.9
2017-Aug-23 08:30N 47°37' W 002°57'1 3.0
2017-Aug-23 08:01N 47°38' W 002°58'0 0.0
2017-Aug-22 14:11N 47°38' W 002°57'0 0.0
2017-Aug-22 13:59N 47°38' W 002°57'0 0.9
2017-Aug-22 13:29N 47°38' W 002°58'0 0.0
2017-Aug-22 12:59N 47°38' W 002°58'  
Track history (hours):
 
Tides and Currents Weather Stations Pressure Air Temp Water Temp Dewpoint Dewpoint Depression Visibility Wind Speed Wind Dir Waves Ship Positions

Zigoto

Last reported at 2017-Sep-01 12:41 UTC. Time now 2017-Sep-25 08:24 UTC.
Position N 47°29' W 003°02'.
Warning: this ship's position is 23 days out of date.

Length 12 m.

Type: Sailing vessel. MMSI: 244070876.

Date/timePositionNaut miles runAvg speedWind from/ knotsBaromVisibWave heightAir tempDewpointWater temp
2017-Sep-01 12:41N 47°29' W 003°02'1 6.6
2017-Sep-01 12:30N 47°30' W 003°01'3 6.4
2017-Sep-01 12:00N 47°33' W 003°00'4 0.2
2017-Aug-31 15:08N 47°34' W 002°55'2 5.4
2017-Aug-31 14:51N 47°34' W 002°53'0 1.2
2017-Aug-31 14:29N 47°35' W 002°53'0 0.0
2017-Aug-31 13:59N 47°35' W 002°53'0 0.0
2017-Aug-31 13:27N 47°35' W 002°53'1 3.2
2017-Aug-31 13:00N 47°36' W 002°52'1 3.0
2017-Aug-31 12:30N 47°37' W 002°50'2 3.6
2017-Aug-31 12:00N 47°37' W 002°47'1 2.6
2017-Aug-31 11:30N 47°38' W 002°46'1 1.9
2017-Aug-31 11:00N 47°39' W 002°45'0 0.0
2017-Aug-31 10:30N 47°39' W 002°45'0 0.0
2017-Aug-31 10:00N 47°39' W 002°45'0 0.0
2017-Aug-31 09:30N 47°39' W 002°45'0 0.0
2017-Aug-31 09:00N 47°39' W 002°45'0 0.0
2017-Aug-31 08:30N 47°39' W 002°45'0 0.0
2017-Aug-31 08:00N 47°39' W 002°45'0 0.0
2017-Aug-31 07:30N 47°39' W 002°45'0 0.0
2017-Aug-30 19:58N 47°39' W 002°45'0 0.0
2017-Aug-30 19:28N 47°39' W 002°45'0 0.0
2017-Aug-30 18:58N 47°39' W 002°45'0 0.0
2017-Aug-30 18:28N 47°39' W 002°45'0 0.0
2017-Aug-30 17:58N 47°39' W 002°45'0 0.0
2017-Aug-30 17:28N 47°39' W 002°45'0 0.0
2017-Aug-30 16:58N 47°39' W 002°45'0 0.0
2017-Aug-30 16:28N 47°39' W 002°45'0 0.0
2017-Aug-30 15:58N 47°39' W 002°45'0 0.0
2017-Aug-30 15:28N 47°39' W 002°45'0 0.0
2017-Aug-30 14:58N 47°39' W 002°45'0 0.0
2017-Aug-30 14:28N 47°39' W 002°45'0 0.0
2017-Aug-30 11:46N 47°39' W 002°45'0 0.0
2017-Aug-30 11:28N 47°39' W 002°45'0 0.0
2017-Aug-30 11:00N 47°39' W 002°45'2 3.1
2017-Aug-30 10:30N 47°38' W 002°46'2 3.4
2017-Aug-30 09:59N 47°37' W 002°49'2 3.7
2017-Aug-30 09:30N 47°36' W 002°51'0 0.0
2017-Aug-29 17:49N 47°36' W 002°51'1 1.5
2017-Aug-29 17:29N 47°36' W 002°52'9 0.4
2017-Aug-28 18:50N 47°27' W 002°58'2 3.0
2017-Aug-28 18:07N 47°29' W 002°58'2 2.9
2017-Aug-28 17:30N 47°31' W 002°59'  
2017-Aug-23 08:52N 47°36' W 002°57'1 2.9
2017-Aug-23 08:30N 47°37' W 002°57'1 3.0
2017-Aug-23 08:01N 47°38' W 002°58'0 0.0
2017-Aug-22 14:11N 47°38' W 002°57'0 0.0
2017-Aug-22 13:59N 47°38' W 002°57'0 0.9
2017-Aug-22 13:29N 47°38' W 002°58'0 0.0
2017-Aug-22 12:59N 47°38' W 002°58'  

Dump ship's entire track history